createdAt,value
2022-11-06T00:04:06.996Z,7.00
2022-11-06T00:14:36.133Z,11.25
2022-11-06T00:25:01.511Z,8.00
2022-11-06T00:30:05.242Z,12.50
2022-11-06T00:35:09.589Z,10.75
2022-11-06T00:40:18.371Z,12.00
2022-11-06T00:45:21.289Z,12.00
2022-11-06T00:50:24.258Z,8.00
2022-11-06T00:55:32.385Z,9.00
2022-11-06T01:00:36.434Z,7.25
2022-11-06T01:05:39.366Z,8.00
2022-11-06T01:10:47.466Z,11.50
2022-11-06T01:15:50.233Z,10.50
2022-11-06T01:26:33.875Z,9.25
2022-11-06T01:37:01.840Z,11.00
2022-11-06T01:42:05.162Z,7.75
2022-11-06T01:47:25.148Z,11.25
2022-11-06T01:52:35.316Z,8.50
2022-11-06T01:57:39.456Z,7.75
2022-11-06T02:08:00.329Z,7.50
2022-11-06T02:13:16.938Z,9.50
2022-11-06T02:18:40.469Z,7.00
2022-11-06T02:24:04.134Z,7.25
2022-11-06T02:29:18.282Z,8.00
2022-11-06T02:34:26.641Z,9.00
2022-11-06T02:39:32.012Z,7.00
2022-11-06T02:44:42.591Z,5.25
2022-11-06T02:49:49.757Z,7.75
2022-11-06T02:55:02.569Z,6.25
2022-11-06T03:00:14.504Z,6.00
2022-11-06T03:05:25.384Z,7.25
2022-11-06T03:21:28.312Z,5.00
2022-11-06T03:26:37.870Z,7.00
2022-11-06T03:31:48.966Z,7.00
2022-11-06T03:37:03.843Z,6.00
2022-11-06T03:42:10.568Z,5.50
2022-11-06T03:47:22.579Z,6.00
2022-11-06T04:03:23.982Z,3.25
2022-11-06T04:13:54.969Z,2.00
2022-11-06T04:18:57.965Z,5.25
2022-11-06T04:29:50.292Z,7.25
2022-11-06T04:40:27.799Z,5.50
2022-11-06T04:45:37.775Z,4.75
2022-11-06T04:50:45.859Z,4.50
2022-11-06T04:55:57.055Z,3.00
2022-11-06T05:01:00.927Z,8.00
2022-11-06T05:06:03.807Z,5.50
2022-11-06T05:11:12.140Z,5.00
2022-11-06T05:16:14.938Z,3.00
2022-11-06T05:21:18.662Z,6.00
2022-11-06T05:26:26.900Z,6.00
2022-11-06T05:31:30.012Z,5.00
2022-11-06T05:52:43.883Z,6.50
2022-11-06T05:57:46.936Z,6.00
2022-11-06T06:02:50.097Z,7.25
2022-11-06T06:07:59.102Z,4.25
2022-11-06T06:23:48.602Z,5.50
2022-11-06T06:28:51.449Z,4.25
2022-11-06T06:33:54.265Z,4.75
2022-11-06T06:49:51.608Z,3.25
2022-11-06T07:00:14.652Z,6.50
2022-11-06T07:10:28.309Z,6.75
2022-11-06T07:15:36.650Z,3.00
2022-11-06T07:20:39.577Z,3.00
2022-11-06T07:25:42.374Z,5.75
2022-11-06T07:30:51.280Z,3.75
2022-11-06T07:41:19.001Z,5.00
2022-11-06T07:46:21.823Z,4.50
2022-11-06T07:51:24.623Z,3.25
2022-11-06T07:56:32.752Z,3.00
2022-11-06T08:17:49.260Z,2.75
2022-11-06T08:33:23.999Z,4.00
2022-11-06T08:38:27.028Z,5.75
2022-11-06T08:43:29.793Z,20.00
2022-11-06T08:48:38.482Z,18.00
2022-11-06T08:53:41.380Z,6.25
2022-11-06T08:58:44.659Z,3.00
2022-11-06T09:03:53.560Z,2.00
2022-11-06T09:08:57.696Z,3.00
2022-11-06T09:14:00.484Z,4.00
2022-11-06T09:29:59.028Z,4.00
2022-11-06T09:35:01.848Z,4.00
2022-11-06T09:45:30.354Z,4.00
2022-11-06T09:56:13.498Z,2.00
2022-11-06T10:01:27.106Z,2.00
2022-11-06T10:06:32.833Z,3.00
2022-11-06T10:11:55.323Z,2.00
2022-11-06T10:22:41.373Z,3.75
2022-11-06T10:27:57.266Z,5.00
2022-11-06T10:38:44.000Z,5.50
2022-11-06T10:49:25.782Z,3.75
2022-11-06T10:54:38.888Z,2.25
2022-11-06T11:05:21.070Z,3.00
2022-11-06T11:10:31.100Z,2.50
2022-11-06T11:15:40.076Z,3.75
2022-11-06T11:20:52.082Z,5.25
2022-11-06T11:25:58.879Z,4.75
2022-11-06T11:31:10.600Z,3.00
2022-11-06T11:36:20.812Z,2.75
2022-11-06T11:41:26.411Z,2.25
2022-11-06T11:46:29.507Z,1.00
2022-11-06T11:51:42.020Z,2.00
2022-11-06T11:57:07.797Z,2.25
2022-11-06T12:02:25.207Z,2.00
2022-11-06T12:07:42.004Z,1.75
2022-11-06T12:12:52.531Z,2.25
2022-11-06T12:18:03.081Z,2.50
2022-11-06T12:23:16.453Z,2.00
2022-11-06T12:28:24.838Z,3.00
2022-11-06T12:33:59.987Z,2.00
2022-11-06T12:39:05.637Z,4.00
2022-11-06T12:49:53.857Z,3.50
2022-11-06T12:55:14.778Z,2.25
2022-11-06T13:05:49.786Z,2.25
2022-11-06T13:16:41.043Z,1.00
2022-11-06T13:22:05.551Z,2.25
2022-11-06T13:32:43.271Z,1.50
2022-11-06T13:43:22.732Z,2.00
2022-11-06T13:48:42.559Z,1.00
2022-11-06T13:53:58.538Z,2.00
2022-11-06T14:15:36.850Z,1.50
2022-11-06T14:26:12.697Z,1.50
2022-11-06T14:32:01.487Z,3.00
2022-11-06T14:38:11.579Z,1.25
2022-11-06T14:43:21.318Z,1.00
2022-11-06T14:48:30.545Z,2.00
2022-11-06T14:53:46.865Z,2.00
2022-11-06T14:58:57.852Z,2.50
2022-11-06T15:09:47.882Z,3.00
2022-11-06T15:15:00.846Z,3.25
2022-11-06T15:20:25.939Z,2.75
2022-11-06T15:25:35.019Z,3.50
2022-11-06T15:30:48.940Z,2.75
2022-11-06T15:41:16.061Z,4.00
2022-11-06T15:51:53.142Z,5.00
2022-11-06T15:56:56.015Z,5.00
2022-11-06T16:07:20.695Z,4.75
2022-11-06T16:23:15.911Z,3.50
2022-11-06T16:33:30.218Z,4.75
2022-11-06T16:38:45.835Z,4.75
2022-11-06T16:43:52.435Z,8.75
2022-11-06T16:48:55.378Z,3.50
2022-11-06T16:54:04.347Z,5.00
2022-11-06T17:09:46.099Z,16.75
2022-11-06T17:14:49.075Z,3.00
2022-11-06T17:19:52.196Z,4.75
2022-11-06T17:25:00.353Z,7.75
2022-11-06T17:30:03.993Z,5.25
2022-11-06T17:40:26.771Z,5.75
2022-11-06T17:45:29.562Z,4.25
2022-11-06T17:50:32.359Z,5.00
2022-11-06T18:01:13.343Z,4.00
2022-11-06T18:06:19.001Z,5.25
2022-11-06T18:11:21.852Z,7.25
2022-11-06T18:16:32.537Z,4.50
2022-11-06T18:26:55.025Z,5.25
2022-11-06T18:31:57.829Z,5.25
2022-11-06T18:37:00.649Z,3.75
2022-11-06T18:42:12.118Z,7.00
2022-11-06T18:47:15.092Z,5.00
2022-11-06T19:02:59.105Z,7.00
2022-11-06T19:08:02.695Z,6.25
2022-11-06T19:13:05.590Z,4.50
2022-11-06T19:18:14.183Z,4.25
2022-11-06T19:23:17.403Z,6.00
2022-11-06T19:28:20.907Z,6.25
2022-11-06T19:33:29.027Z,5.25
2022-11-06T19:38:31.756Z,5.75
2022-11-06T19:43:38.846Z,6.50
2022-11-06T19:48:47.739Z,7.00
2022-11-06T19:53:54.245Z,4.25
2022-11-06T19:58:57.071Z,4.25
2022-11-06T20:09:24.913Z,6.25
2022-11-06T20:19:46.826Z,5.75
2022-11-06T20:24:49.642Z,6.00
2022-11-06T20:29:52.447Z,5.75
2022-11-06T20:35:03.121Z,6.00
2022-11-06T20:40:07.151Z,3.75
2022-11-06T20:45:10.845Z,5.75
2022-11-06T20:50:19.511Z,5.75
2022-11-06T20:55:22.610Z,3.00
2022-11-06T21:00:26.649Z,1.25
2022-11-06T21:05:36.143Z,3.00
2022-11-06T21:10:39.099Z,4.00
2022-11-06T21:21:04.026Z,3.00
2022-11-06T21:26:08.470Z,4.00
2022-11-06T21:31:12.888Z,5.75
2022-11-06T21:41:44.696Z,3.25
2022-11-06T21:52:29.269Z,2.75
2022-11-06T21:57:39.411Z,3.75
2022-11-06T22:08:03.834Z,5.00
2022-11-06T22:13:06.664Z,5.75
2022-11-06T22:18:09.504Z,4.00
2022-11-06T22:23:17.676Z,5.50
2022-11-06T22:28:20.492Z,5.25
2022-11-06T22:33:23.424Z,4.00
2022-11-06T22:38:31.650Z,3.75
2022-11-06T22:43:35.604Z,4.00
2022-11-06T22:48:38.989Z,4.00
2022-11-06T22:53:47.550Z,6.00
2022-11-06T22:58:54.650Z,6.25
2022-11-06T23:04:02.644Z,4.00
2022-11-06T23:09:12.051Z,3.00
2022-11-06T23:14:15.265Z,7.00
2022-11-06T23:19:20.874Z,6.25
2022-11-06T23:24:29.070Z,4.00
2022-11-06T23:29:32.155Z,4.00
2022-11-06T23:34:35.008Z,5.75
2022-11-06T23:45:08.283Z,6.75
